Time;durP1;ratioP1;P1;durP2;ratioP2;P2;SDS_P1;SDS_P2;PMS_P1;PMS_P2;Temp;Humidity;BMP_temperature;BMP_pressure;BME280_temperature;BME280_humidity;BME280_pressure;Samples;Min_cycle;Max_cycle;Signal;HPM_P1;HPM_P2
2023/04/14 00:02:19;;;;;;;;;;;4.60;99.90;;;;;;5070744;28;20331;-75
2023/04/14 00:04:50;;;;;;;;;;;4.60;99.90;;;;;;5093260;28;19964;-75
2023/04/14 00:07:15;;;;;;;;;;;4.50;99.90;;;;;;5093758;28;19964;-75
2023/04/14 00:09:41;;;;;;;;;;;4.50;99.90;;;;;;5076409;28;19935;-75
2023/04/14 00:12:06;;;;;;;;;;;4.50;99.90;;;;;;5092289;28;19928;-75
2023/04/14 00:14:32;;;;;;;;;;;4.60;99.90;;;;;;5072888;28;19935;-75
2023/04/14 00:16:58;;;;;;;;;;;4.50;99.90;;;;;;5074873;28;19935;-75
2023/04/14 00:19:24;;;;;;;;;;;4.40;99.90;;;;;;5069868;28;19925;-75
2023/04/14 00:21:49;;;;;;;;;;;4.40;99.90;;;;;;5075953;28;19940;-75
2023/04/14 00:24:15;;;;;;;;;;;4.40;99.90;;;;;;5076265;28;19924;-75
2023/04/14 00:26:40;;;;;;;;;;;4.40;99.90;;;;;;5088553;28;19964;-75
2023/04/14 00:29:06;;;;;;;;;;;4.40;99.90;;;;;;5089809;28;19925;-75
2023/04/14 00:31:32;;;;;;;;;;;4.40;99.90;;;;;;5076066;28;19925;-75
2023/04/14 00:33:57;;;;;;;;;;;4.40;99.90;;;;;;5092196;28;19924;-75
2023/04/14 00:36:23;;;;;;;;;;;4.40;99.90;;;;;;5073803;28;19924;-75
2023/04/14 00:38:48;;;;;;;;;;;4.40;99.90;;;;;;5091307;28;20031;-75
2023/04/14 00:41:14;;;;;;;;;;;4.30;99.90;;;;;;5090741;28;20374;-75
2023/04/14 00:43:40;;;;;;;;;;;4.30;99.90;;;;;;5084046;28;20028;-75
2023/04/14 00:46:05;;;;;;;;;;;4.30;99.90;;;;;;5056220;28;20377;-75
2023/04/14 00:48:31;;;;;;;;;;;4.30;99.90;;;;;;5061816;28;19984;-75
2023/04/14 00:50:57;;;;;;;;;;;4.20;99.90;;;;;;5091717;28;20019;-75
2023/04/14 00:53:22;;;;;;;;;;;4.20;99.90;;;;;;5091779;28;19925;-75
2023/04/14 00:55:48;;;;;;;;;;;4.20;99.90;;;;;;5076310;28;19979;-75
2023/04/14 00:58:15;;;;;;;;;;;4.20;99.90;;;;;;5065013;28;19963;-75
2023/04/14 01:00:40;;;;;;;;;;;4.20;99.90;;;;;;5089307;28;20031;-75
2023/04/14 01:03:06;;;;;;;;;;;4.20;99.90;;;;;;5067188;28;19984;-75
2023/04/14 01:05:32;;;;;;;;;;;4.20;99.90;;;;;;5091771;28;19936;-75
2023/04/14 01:07:58;;;;;;;;;;;4.10;99.90;;;;;;5092508;28;19929;-75
2023/04/14 01:10:29;;;;;;;;;;;4.10;99.90;;;;;;5073666;28;19936;-75
2023/04/14 01:13:06;;;;;;;;;;;4.10;99.90;;;;;;5058597;28;20000;-75
2023/04/14 01:15:38;;;;;;;;;;;4.10;99.90;;;;;;5091196;28;19978;-75
2023/04/14 01:18:09;;;;;;;;;;;4.00;99.90;;;;;;5090648;28;19999;-75
2023/04/14 01:20:37;;;;;;;;;;;4.00;99.90;;;;;;5059181;28;20003;-75
2023/04/14 01:23:02;;;;;;;;;;;4.00;99.90;;;;;;5089725;28;19967;-75
2023/04/14 01:25:46;;;;;;;;;;;4.00;99.90;;;;;;5059469;28;19935;-75
2023/04/14 01:28:18;;;;;;;;;;;4.00;99.90;;;;;;5078888;28;19928;-75
2023/04/14 01:31:03;;;;;;;;;;;3.90;99.90;;;;;;5087212;28;19964;-75
2023/04/14 01:33:29;;;;;;;;;;;3.90;99.90;;;;;;5108824;28;19925;-75
2023/04/14 01:35:57;;;;;;;;;;;3.90;99.90;;;;;;5075221;28;19935;-75
2023/04/14 01:38:31;;;;;;;;;;;3.80;99.90;;;;;;5092260;28;19925;-75
2023/04/14 01:40:59;;;;;;;;;;;3.70;99.90;;;;;;5058840;28;19928;-75
2023/04/14 01:43:26;;;;;;;;;;;3.70;99.90;;;;;;5091042;28;19963;-75
2023/04/14 01:45:54;;;;;;;;;;;3.70;99.90;;;;;;5076183;28;19935;-75
2023/04/14 01:48:20;;;;;;;;;;;3.70;99.90;;;;;;5092298;28;19939;-75
2023/04/14 01:50:46;;;;;;;;;;;3.60;99.90;;;;;;5092600;28;19928;-75
2023/04/14 01:53:13;;;;;;;;;;;3.60;99.90;;;;;;5072371;28;19928;-75
2023/04/14 01:55:40;;;;;;;;;;;3.60;99.90;;;;;;5093618;28;19932;-75
2023/04/14 01:58:06;;;;;;;;;;;3.60;99.90;;;;;;5069741;28;19992;-75
2023/04/14 02:00:34;;;;;;;;;;;3.50;99.90;;;;;;5095097;28;19932;-75
2023/04/14 02:03:01;;;;;;;;;;;3.60;99.90;;;;;;5064873;28;19933;-75
2023/04/14 02:05:28;;;;;;;;;;;3.60;99.90;;;;;;5061790;28;19939;-75
2023/04/14 02:07:53;;;;;;;;;;;3.60;99.90;;;;;;5079375;28;19996;-75
2023/04/14 02:10:20;;;;;;;;;;;3.60;99.90;;;;;;5094328;28;19924;-75
2023/04/14 02:12:47;;;;;;;;;;;3.60;99.90;;;;;;5075487;28;19924;-75
2023/04/14 02:15:16;;;;;;;;;;;3.60;99.90;;;;;;5087425;28;19958;-75
2023/04/14 02:17:42;;;;;;;;;;;3.70;99.90;;;;;;5092719;28;19924;-75
2023/04/14 02:20:08;;;;;;;;;;;3.70;99.90;;;;;;5069810;28;19947;-75
2023/04/14 02:22:34;;;;;;;;;;;3.70;99.90;;;;;;5062489;28;19984;-75
2023/04/14 02:25:00;;;;;;;;;;;3.70;99.90;;;;;;5094052;28;19935;-75
2023/04/14 02:27:37;;;;;;;;;;;3.80;99.90;;;;;;5061505;28;19928;-75
2023/04/14 02:30:07;;;;;;;;;;;3.80;99.90;;;;;;5067370;28;20448;-75
2023/04/14 02:32:34;;;;;;;;;;;3.80;99.90;;;;;;5077793;28;19935;-75
2023/04/14 02:35:00;;;;;;;;;;;3.90;99.90;;;;;;5091576;28;19999;-75
2023/04/14 02:37:30;;;;;;;;;;;4.00;99.90;;;;;;5093217;28;20350;-75
2023/04/14 02:39:59;;;;;;;;;;;4.00;99.90;;;;;;5092044;28;19931;-75
2023/04/14 02:42:26;;;;;;;;;;;4.00;99.90;;;;;;5094455;28;19929;-75
2023/04/14 02:44:57;;;;;;;;;;;3.90;99.90;;;;;;5081387;28;19966;-75
2023/04/14 02:47:25;;;;;;;;;;;4.00;99.90;;;;;;5094226;28;19995;-75
2023/04/14 02:49:52;;;;;;;;;;;4.00;99.90;;;;;;5088637;28;20003;-75
2023/04/14 02:52:18;;;;;;;;;;;4.00;99.90;;;;;;5046615;28;19925;-75
2023/04/14 02:54:45;;;;;;;;;;;3.90;99.90;;;;;;5063315;28;19928;-75
2023/04/14 02:57:11;;;;;;;;;;;3.90;99.90;;;;;;5078625;28;19932;-75
2023/04/14 02:59:37;;;;;;;;;;;3.90;99.90;;;;;;5087765;28;20331;-75
2023/04/14 03:02:04;;;;;;;;;;;3.90;99.90;;;;;;5061918;28;19935;-75
2023/04/14 03:04:31;;;;;;;;;;;3.90;99.90;;;;;;5092911;28;20295;-75
2023/04/14 03:06:57;;;;;;;;;;;3.90;99.90;;;;;;5074729;28;19931;-75
2023/04/14 03:09:24;;;;;;;;;;;3.80;99.90;;;;;;5077034;28;19925;-75
2023/04/14 03:11:50;;;;;;;;;;;3.80;99.90;;;;;;5095654;28;19924;-75
2023/04/14 03:14:17;;;;;;;;;;;3.70;99.90;;;;;;5077241;28;19928;-75
2023/04/14 03:16:42;;;;;;;;;;;3.70;99.90;;;;;;5094659;28;19966;-75
2023/04/14 03:19:11;;;;;;;;;;;3.60;99.90;;;;;;5093477;28;19924;-75
2023/04/14 03:21:37;;;;;;;;;;;3.60;99.90;;;;;;5067847;28;19932;-75
2023/04/14 03:24:04;;;;;;;;;;;3.50;99.90;;;;;;5094816;28;20087;-75
2023/04/14 03:26:31;;;;;;;;;;;3.50;99.90;;;;;;5060768;28;19999;-75
2023/04/14 03:28:58;;;;;;;;;;;3.50;99.90;;;;;;5094821;28;20009;-75
2023/04/14 03:31:29;;;;;;;;;;;3.50;99.90;;;;;;5093537;28;19928;-75
2023/04/14 03:33:56;;;;;;;;;;;3.40;99.90;;;;;;5061327;28;19974;-75
2023/04/14 03:36:22;;;;;;;;;;;3.40;99.90;;;;;;5075803;28;19928;-75
2023/04/14 03:38:48;;;;;;;;;;;3.40;99.90;;;;;;5077016;28;19983;-75
2023/04/14 03:41:16;;;;;;;;;;;3.40;99.90;;;;;;5076822;28;19959;-75
2023/04/14 03:43:41;;;;;;;;;;;3.40;99.90;;;;;;5093498;28;19971;-75
2023/04/14 03:46:09;;;;;;;;;;;3.40;99.90;;;;;;5076200;28;19932;-75
2023/04/14 03:48:38;;;;;;;;;;;3.30;99.90;;;;;;5089804;28;20001;-76
2023/04/14 03:51:05;;;;;;;;;;;3.30;99.90;;;;;;5064540;28;19974;-75
2023/04/14 03:53:33;;;;;;;;;;;3.30;99.90;;;;;;5043203;28;19947;-75
2023/04/14 03:56:00;;;;;;;;;;;3.20;99.90;;;;;;5076122;28;19998;-75
2023/04/14 03:58:28;;;;;;;;;;;3.20;99.90;;;;;;5092154;28;19928;-75
2023/04/14 04:00:54;;;;;;;;;;;3.20;99.90;;;;;;5091095;28;19929;-75
2023/04/14 04:03:20;;;;;;;;;;;3.30;99.90;;;;;;5074740;28;19925;-75
2023/04/14 04:05:46;;;;;;;;;;;3.30;99.90;;;;;;5059596;28;19924;-75
2023/04/14 04:08:13;;;;;;;;;;;3.30;99.90;;;;;;5074446;28;19935;-75
2023/04/14 04:10:39;;;;;;;;;;;3.30;99.90;;;;;;5090178;28;19956;-75
2023/04/14 04:13:07;;;;;;;;;;;3.30;99.90;;;;;;5061961;28;20557;-75
2023/04/14 04:15:33;;;;;;;;;;;3.20;99.90;;;;;;5075215;28;19925;-75
2023/04/14 04:18:00;;;;;;;;;;;3.20;99.90;;;;;;5090980;28;20009;-75
2023/04/14 04:20:26;;;;;;;;;;;3.10;99.90;;;;;;5094544;28;19931;-75
2023/04/14 04:22:52;;;;;;;;;;;3.10;99.90;;;;;;5093104;28;21289;-75
2023/04/14 04:25:18;;;;;;;;;;;3.00;99.90;;;;;;5060083;28;19924;-75
2023/04/14 04:27:44;;;;;;;;;;;3.00;99.90;;;;;;5045017;28;19928;-75
2023/04/14 04:30:10;;;;;;;;;;;3.00;99.90;;;;;;5093267;28;19925;-75
2023/04/14 04:32:38;;;;;;;;;;;3.00;99.90;;;;;;5076858;28;19924;-75
2023/04/14 04:35:05;;;;;;;;;;;3.00;99.90;;;;;;5093405;28;19951;-75
2023/04/14 04:37:32;;;;;;;;;;;3.10;99.90;;;;;;5060498;28;19995;-75
2023/04/14 04:39:57;;;;;;;;;;;3.10;99.90;;;;;;5076476;28;20026;-75
2023/04/14 04:42:23;;;;;;;;;;;3.20;99.90;;;;;;5076729;28;19975;-76
2023/04/14 04:44:49;;;;;;;;;;;3.20;99.90;;;;;;5076008;28;20387;-76
2023/04/14 04:47:15;;;;;;;;;;;3.20;99.90;;;;;;5075718;28;19972;-75
2023/04/14 04:49:40;;;;;;;;;;;3.20;99.90;;;;;;5075939;28;20361;-75
2023/04/14 04:52:06;;;;;;;;;;;3.20;99.90;;;;;;5079411;28;19924;-74
2023/04/14 04:54:32;;;;;;;;;;;3.10;99.90;;;;;;5054206;28;19924;-75
2023/04/14 04:56:58;;;;;;;;;;;3.10;99.90;;;;;;5072600;28;19925;-75
2023/04/14 04:59:24;;;;;;;;;;;3.10;99.90;;;;;;5075582;28;19925;-75
2023/04/14 05:01:50;;;;;;;;;;;3.20;99.90;;;;;;5058131;28;19939;-75
2023/04/14 05:04:16;;;;;;;;;;;3.10;99.90;;;;;;5091537;28;19924;-75
2023/04/14 05:06:41;;;;;;;;;;;3.10;99.90;;;;;;5055819;28;19943;-75
2023/04/14 05:09:07;;;;;;;;;;;3.10;99.90;;;;;;5091653;28;19928;-75
2023/04/14 05:11:33;;;;;;;;;;;3.20;99.90;;;;;;5076806;28;20100;-75
2023/04/14 05:13:59;;;;;;;;;;;3.20;99.90;;;;;;5043442;28;19925;-75
2023/04/14 05:16:25;;;;;;;;;;;3.20;99.90;;;;;;5046603;28;19988;-75
2023/04/14 05:18:51;;;;;;;;;;;3.20;99.90;;;;;;5059962;28;19928;-75
2023/04/14 05:21:16;;;;;;;;;;;3.20;99.90;;;;;;5093014;28;20376;-75
2023/04/14 05:23:42;;;;;;;;;;;3.30;99.90;;;;;;5088887;28;19970;-75
2023/04/14 05:26:08;;;;;;;;;;;3.40;99.90;;;;;;5073687;28;20791;-75
2023/04/14 05:28:34;;;;;;;;;;;3.50;99.90;;;;;;5060875;28;19925;-75
2023/04/14 05:31:00;;;;;;;;;;;3.60;99.90;;;;;;5077215;28;19968;-76
2023/04/14 05:33:25;;;;;;;;;;;3.70;99.90;;;;;;5062986;28;19932;-75
2023/04/14 05:35:51;;;;;;;;;;;3.80;99.90;;;;;;5050958;28;19959;-75
2023/04/14 05:38:17;;;;;;;;;;;3.90;99.90;;;;;;5079100;28;19924;-75
2023/04/14 05:40:43;;;;;;;;;;;4.10;99.90;;;;;;5075712;28;19928;-75
2023/04/14 05:43:09;;;;;;;;;;;4.40;99.90;;;;;;5112978;28;20392;-75
2023/04/14 05:45:35;;;;;;;;;;;4.50;99.90;;;;;;5096014;28;19935;-75
2023/04/14 05:48:01;;;;;;;;;;;4.70;99.90;;;;;;5096437;28;19943;-75
2023/04/14 05:50:26;;;;;;;;;;;4.80;99.90;;;;;;5067016;28;19936;-75
2023/04/14 05:52:52;;;;;;;;;;;5.00;99.90;;;;;;5096509;28;20393;-75
2023/04/14 05:55:18;;;;;;;;;;;5.20;99.90;;;;;;5097307;28;19928;-75
2023/04/14 05:57:43;;;;;;;;;;;5.50;99.90;;;;;;5094570;28;19931;-75
2023/04/14 06:00:11;;;;;;;;;;;5.70;99.90;;;;;;5079142;28;19924;-75
2023/04/14 06:02:37;;;;;;;;;;;5.80;99.90;;;;;;5096692;28;19925;-75
2023/04/14 06:05:05;;;;;;;;;;;6.00;99.90;;;;;;5095620;28;19924;-75
2023/04/14 06:07:30;;;;;;;;;;;6.10;99.90;;;;;;5059703;28;19928;-75
2023/04/14 06:09:56;;;;;;;;;;;6.30;99.90;;;;;;5085146;28;19929;-75
2023/04/14 06:12:22;;;;;;;;;;;6.50;99.90;;;;;;5074013;28;20462;-75
2023/04/14 06:14:47;;;;;;;;;;;6.60;99.90;;;;;;5094218;28;19996;-75
2023/04/14 06:17:13;;;;;;;;;;;6.60;99.90;;;;;;5091444;28;19929;-75
2023/04/14 06:19:38;;;;;;;;;;;6.60;99.90;;;;;;5079062;28;20469;-75
2023/04/14 06:22:10;;;;;;;;;;;6.60;99.90;;;;;;5095568;28;20407;-76
2023/04/14 06:24:35;;;;;;;;;;;6.60;99.90;;;;;;5061132;28;19939;-76
2023/04/14 06:27:05;;;;;;;;;;;6.60;99.90;;;;;;5062279;28;19990;-75
2023/04/14 06:29:31;;;;;;;;;;;6.60;99.90;;;;;;5096289;28;19940;-75
2023/04/14 06:31:56;;;;;;;;;;;6.60;99.90;;;;;;5079832;28;19924;-75
2023/04/14 06:34:22;;;;;;;;;;;6.60;99.90;;;;;;5077338;28;19928;-76
2023/04/14 06:36:48;;;;;;;;;;;6.60;99.90;;;;;;5092047;28;19931;-75
2023/04/14 06:39:14;;;;;;;;;;;6.70;99.90;;;;;;5088579;28;19943;-75
2023/04/14 06:41:40;;;;;;;;;;;6.80;99.90;;;;;;5083336;28;19925;-75
2023/04/14 06:44:06;;;;;;;;;;;6.80;99.90;;;;;;5074856;28;19991;-75
2023/04/14 06:46:34;;;;;;;;;;;6.80;99.90;;;;;;5047502;28;19955;-75
2023/04/14 06:49:00;;;;;;;;;;;6.90;99.90;;;;;;5071671;28;19929;-75
2023/04/14 06:51:26;;;;;;;;;;;7.00;99.90;;;;;;5067457;28;20285;-75
2023/04/14 06:53:51;;;;;;;;;;;7.00;99.90;;;;;;5054632;28;19955;-75
2023/04/14 06:56:17;;;;;;;;;;;7.10;99.90;;;;;;5077737;28;19955;-75
2023/04/14 06:58:42;;;;;;;;;;;7.20;99.90;;;;;;5079019;28;19974;-75
2023/04/14 07:01:08;;;;;;;;;;;7.30;99.90;;;;;;5094776;28;19924;-75
2023/04/14 07:03:33;;;;;;;;;;;7.40;99.90;;;;;;5061586;28;19924;-75
2023/04/14 07:06:03;;;;;;;;;;;7.60;99.90;;;;;;5095164;28;19928;-75
2023/04/14 07:08:31;;;;;;;;;;;7.70;99.90;;;;;;5074248;28;19932;-75
2023/04/14 07:11:01;;;;;;;;;;;7.90;99.90;;;;;;5077552;28;19931;-75
2023/04/14 07:13:27;;;;;;;;;;;8.10;99.90;;;;;;5092960;28;19992;-75
2023/04/14 07:15:52;;;;;;;;;;;8.60;99.90;;;;;;5063211;28;19929;-75
2023/04/14 07:18:18;;;;;;;;;;;9.10;99.90;;;;;;5093795;28;19992;-75
2023/04/14 07:20:44;;;;;;;;;;;9.70;99.90;;;;;;5091651;28;19931;-76
2023/04/14 07:23:09;;;;;;;;;;;10.50;99.90;;;;;;5095403;28;19925;-76
2023/04/14 07:25:38;;;;;;;;;;;11.30;99.90;;;;;;5069543;28;19984;-76
2023/04/14 07:28:04;;;;;;;;;;;12.00;99.90;;;;;;5062508;28;19928;-76
2023/04/14 07:30:30;;;;;;;;;;;12.50;99.90;;;;;;5055719;28;20008;-76
2023/04/14 07:32:55;;;;;;;;;;;13.00;99.90;;;;;;5078040;28;19947;-76
2023/04/14 07:35:23;;;;;;;;;;;13.50;99.90;;;;;;5040312;28;19925;-76
2023/04/14 07:37:48;;;;;;;;;;;14.00;99.90;;;;;;5088483;28;19959;-77
2023/04/14 07:40:14;;;;;;;;;;;14.40;99.90;;;;;;5075992;28;19931;-76
2023/04/14 07:42:40;;;;;;;;;;;14.70;98.40;;;;;;5076526;28;19928;-76
2023/04/14 07:45:06;;;;;;;;;;;14.80;99.90;;;;;;5092752;28;19931;-76
2023/04/14 07:47:32;;;;;;;;;;;15.00;99.90;;;;;;5092536;28;19931;-76
2023/04/14 07:49:58;;;;;;;;;;;15.30;96.00;;;;;;5063773;28;19974;-77
2023/04/14 07:52:23;;;;;;;;;;;15.60;92.70;;;;;;5075972;28;19929;-76
2023/04/14 07:54:49;;;;;;;;;;;15.70;92.00;;;;;;5071614;28;20063;-77
2023/04/14 07:57:15;;;;;;;;;;;15.80;83.70;;;;;;5043574;28;19985;-76
2023/04/14 07:59:41;;;;;;;;;;;15.80;90.50;;;;;;5091784;28;20561;-77
2023/04/14 08:02:07;;;;;;;;;;;16.00;90.80;;;;;;5072957;28;19949;-77
2023/04/14 08:04:33;;;;;;;;;;;16.20;83.80;;;;;;5092043;28;19928;-77
2023/04/14 08:06:58;;;;;;;;;;;16.10;80.60;;;;;;5076340;28;20314;-77
2023/04/14 08:09:24;;;;;;;;;;;16.10;84.10;;;;;;5066485;28;19925;-77
2023/04/14 08:11:50;;;;;;;;;;;16.20;86.50;;;;;;5072133;28;19995;-76
2023/04/14 08:14:15;;;;;;;;;;;16.30;78.00;;;;;;5092332;28;19976;-76
2023/04/14 08:16:41;;;;;;;;;;;16.40;84.00;;;;;;5076865;28;19935;-77
2023/04/14 08:19:07;;;;;;;;;;;16.50;78.00;;;;;;5093329;28;19962;-77
2023/04/14 08:21:32;;;;;;;;;;;16.50;84.60;;;;;;5077534;28;19932;-77
2023/04/14 08:23:58;;;;;;;;;;;16.70;80.20;;;;;;5075712;28;20387;-77
2023/04/14 08:26:23;;;;;;;;;;;16.80;80.20;;;;;;5092901;28;19924;-77
2023/04/14 08:28:49;;;;;;;;;;;17.00;81.10;;;;;;5094795;28;19968;-77
2023/04/14 08:31:15;;;;;;;;;;;17.10;77.60;;;;;;5093316;28;19928;-77
2023/04/14 08:33:41;;;;;;;;;;;17.00;79.10;;;;;;5060283;28;19929;-77
2023/04/14 08:36:06;;;;;;;;;;;17.00;78.30;;;;;;5048406;28;19925;-77
2023/04/14 08:38:32;;;;;;;;;;;17.10;82.60;;;;;;5065908;28;19932;-76
2023/04/14 08:40:59;;;;;;;;;;;17.20;81.90;;;;;;5076603;28;19924;-77
2023/04/14 08:43:25;;;;;;;;;;;17.20;79.00;;;;;;5095490;28;19995;-77
2023/04/14 08:45:51;;;;;;;;;;;17.30;76.40;;;;;;5065127;28;19960;-77
2023/04/14 08:48:21;;;;;;;;;;;17.30;74.30;;;;;;5076217;28;19924;-77
2023/04/14 08:51:07;;;;;;;;;;;17.20;71.50;;;;;;5092655;28;19925;-77
2023/04/14 08:53:33;;;;;;;;;;;17.10;80.70;;;;;;5059480;28;20019;-77
2023/04/14 08:56:02;;;;;;;;;;;17.20;80.90;;;;;;5069769;28;19954;-77
2023/04/14 08:58:28;;;;;;;;;;;17.40;76.50;;;;;;5093553;28;19938;-77
2023/04/14 09:00:53;;;;;;;;;;;17.40;69.30;;;;;;5074202;28;19924;-77
2023/04/14 09:03:19;;;;;;;;;;;17.40;75.20;;;;;;5076531;28;19924;-77
2023/04/14 09:05:45;;;;;;;;;;;17.50;67.50;;;;;;5090858;28;19931;-77
2023/04/14 09:08:11;;;;;;;;;;;17.50;67.20;;;;;;5059533;28;19932;-77
2023/04/14 09:10:37;;;;;;;;;;;17.40;66.10;;;;;;5075284;28;19970;-77
2023/04/14 09:13:03;;;;;;;;;;;17.60;69.90;;;;;;5059095;28;20433;-77
2023/04/14 09:15:29;;;;;;;;;;;17.60;70.80;;;;;;5077511;28;19924;-78
2023/04/14 09:17:55;;;;;;;;;;;17.50;68.50;;;;;;5075573;28;19988;-77
2023/04/14 09:20:21;;;;;;;;;;;17.70;68.50;;;;;;5089086;28;19975;-78
2023/04/14 09:22:46;;;;;;;;;;;17.70;67.70;;;;;;5084537;28;20589;-77
2023/04/14 09:25:14;;;;;;;;;;;17.70;69.60;;;;;;5087749;28;19967;-77
2023/04/14 09:27:40;;;;;;;;;;;17.60;73.60;;;;;;5089061;28;19932;-77
2023/04/14 09:30:07;;;;;;;;;;;17.50;67.50;;;;;;5091361;28;19924;-77
2023/04/14 09:32:33;;;;;;;;;;;17.40;69.60;;;;;;5061038;28;20032;-77
2023/04/14 09:34:58;;;;;;;;;;;17.40;68.50;;;;;;5091856;28;20360;-77
2023/04/14 09:37:25;;;;;;;;;;;17.40;64.30;;;;;;5076857;28;19992;-77
2023/04/14 09:39:51;;;;;;;;;;;17.50;66.00;;;;;;5091520;28;19939;-77
2023/04/14 09:42:17;;;;;;;;;;;17.60;74.30;;;;;;5092971;28;20342;-77
2023/04/14 09:44:53;;;;;;;;;;;17.60;70.20;;;;;;5091852;28;19982;-77
2023/04/14 09:47:19;;;;;;;;;;;17.60;63.50;;;;;;5108751;28;20315;-77
2023/04/14 09:49:56;;;;;;;;;;;17.60;63.40;;;;;;5088766;28;19939;-77
2023/04/14 09:52:22;;;;;;;;;;;17.60;65.10;;;;;;5073913;28;19924;-78
2023/04/14 09:54:53;;;;;;;;;;;17.60;66.60;;;;;;5092672;28;19928;-78
2023/04/14 09:57:25;;;;;;;;;;;17.60;64.30;;;;;;5045879;28;19932;-77
2023/04/14 09:59:51;;;;;;;;;;;17.70;65.70;;;;;;5092224;28;19932;-78
2023/04/14 10:02:16;;;;;;;;;;;17.90;76.50;;;;;;5075176;28;20346;-77
2023/04/14 10:04:42;;;;;;;;;;;17.90;65.60;;;;;;5074598;28;19940;-77
2023/04/14 10:07:09;;;;;;;;;;;17.70;65.00;;;;;;5076346;28;19925;-77
2023/04/14 10:09:39;;;;;;;;;;;17.70;75.60;;;;;;5091620;28;19928;-77
2023/04/14 10:12:08;;;;;;;;;;;18.00;66.70;;;;;;5063384;28;19979;-78
2023/04/14 10:14:34;;;;;;;;;;;18.10;69.40;;;;;;5090285;28;19924;-77
2023/04/14 10:17:01;;;;;;;;;;;18.00;63.50;;;;;;5078580;28;19954;-77
2023/04/14 10:19:27;;;;;;;;;;;17.90;63.20;;;;;;5094549;28;19989;-77
2023/04/14 10:21:53;;;;;;;;;;;17.60;60.70;;;;;;5079593;28;19924;-79
2023/04/14 10:24:22;;;;;;;;;;;17.50;66.00;;;;;;5062092;28;19924;-77
2023/04/14 10:26:48;;;;;;;;;;;17.30;62.40;;;;;;5094458;28;19924;-78
2023/04/14 10:29:14;;;;;;;;;;;16.80;62.50;;;;;;5077840;28;19932;-77
2023/04/14 10:31:45;;;;;;;;;;;16.50;66.10;;;;;;5095861;28;19934;-76
2023/04/14 10:34:12;;;;;;;;;;;16.40;64.90;;;;;;5072581;28;19928;-77
2023/04/14 10:36:38;;;;;;;;;;;16.40;66.50;;;;;;5096426;28;19924;-77
2023/04/14 10:39:04;;;;;;;;;;;16.50;65.20;;;;;;5094628;28;19971;-78
2023/04/14 10:41:42;;;;;;;;;;;16.70;66.40;;;;;;5063733;28;19932;-77
2023/04/14 10:44:20;;;;;;;;;;;16.50;65.50;;;;;;5060949;28;19928;-77
2023/04/14 10:46:46;;;;;;;;;;;16.30;70.40;;;;;;5048805;28;19924;-78
2023/04/14 10:49:12;;;;;;;;;;;16.10;69.50;;;;;;5075937;28;20011;-77
2023/04/14 10:51:37;;;;;;;;;;;15.90;65.20;;;;;;5064342;28;19924;-77
2023/04/14 10:54:13;;;;;;;;;;;15.80;65.80;;;;;;5077433;28;19983;-77
2023/04/14 10:56:39;;;;;;;;;;;15.80;69.30;;;;;;5057716;28;19963;-77
2023/04/14 10:59:04;;;;;;;;;;;15.90;70.50;;;;;;5071822;28;19925;-77
2023/04/14 11:01:31;;;;;;;;;;;15.90;67.10;;;;;;5032774;28;19936;-77
2023/04/14 11:04:19;;;;;;;;;;;16.10;65.80;;;;;;5081033;28;19974;-77
2023/04/14 11:06:57;;;;;;;;;;;16.30;64.00;;;;;;5068290;28;19924;-77
2023/04/14 11:09:36;;;;;;;;;;;16.20;62.00;;;;;;5059520;28;20390;-77
2023/04/14 11:12:03;;;;;;;;;;;16.00;70.00;;;;;;5095614;28;19931;-77
2023/04/14 11:14:33;;;;;;;;;;;16.10;63.80;;;;;;5095609;28;20011;-77
2023/04/14 11:17:03;;;;;;;;;;;16.10;62.80;;;;;;5095794;28;19956;-77
2023/04/14 11:19:29;;;;;;;;;;;16.00;64.80;;;;;;5079590;28;19958;-77
2023/04/14 11:21:56;;;;;;;;;;;16.20;67.50;;;;;;5044036;28;20063;-77
2023/04/14 11:24:22;;;;;;;;;;;16.40;65.60;;;;;;5093280;28;19929;-77
2023/04/14 11:26:50;;;;;;;;;;;16.60;67.30;;;;;;5093664;28;20315;-76
2023/04/14 11:29:16;;;;;;;;;;;16.60;64.50;;;;;;5112044;28;20034;-77
2023/04/14 11:31:42;;;;;;;;;;;16.60;63.00;;;;;;5077506;28;19924;-77
2023/04/14 11:34:08;;;;;;;;;;;16.60;58.80;;;;;;5092116;28;19925;-77
2023/04/14 11:36:35;;;;;;;;;;;16.60;62.90;;;;;;5068903;28;19951;-77
2023/04/14 11:39:02;;;;;;;;;;;16.60;64.40;;;;;;5072740;28;19947;-77
2023/04/14 11:41:28;;;;;;;;;;;16.70;62.00;;;;;;5090283;28;19943;-77
2023/04/14 11:43:54;;;;;;;;;;;16.70;64.40;;;;;;5072877;28;19925;-79
2023/04/14 11:46:20;;;;;;;;;;;16.70;65.00;;;;;;5042930;28;20007;-77
2023/04/14 11:48:46;;;;;;;;;;;16.60;63.70;;;;;;5079119;28;19924;-77
2023/04/14 11:51:12;;;;;;;;;;;16.20;62.20;;;;;;5060542;28;19924;-77
2023/04/14 11:53:42;;;;;;;;;;;16.10;64.10;;;;;;5085155;28;19932;-77
2023/04/14 11:56:07;;;;;;;;;;;16.00;68.20;;;;;;5045888;28;19969;-77
2023/04/14 11:58:33;;;;;;;;;;;16.00;60.00;;;;;;5061038;28;20031;-78
2023/04/14 12:00:59;;;;;;;;;;;16.10;67.90;;;;;;5075799;28;19924;-77
2023/04/14 12:03:30;;;;;;;;;;;16.10;64.20;;;;;;5059294;28;19929;-78
2023/04/14 12:06:00;;;;;;;;;;;16.20;63.20;;;;;;5072848;28;19925;-77
2023/04/14 12:08:28;;;;;;;;;;;16.30;58.70;;;;;;5060948;28;19932;-77
2023/04/14 12:10:55;;;;;;;;;;;16.40;58.90;;;;;;5091185;28;19925;-78
2023/04/14 12:13:20;;;;;;;;;;;16.60;60.90;;;;;;5086020;28;19928;-77
2023/04/14 12:15:46;;;;;;;;;;;16.80;60.90;;;;;;5093351;28;19925;-79
2023/04/14 12:18:15;;;;;;;;;;;16.90;57.90;;;;;;5072234;28;20379;-78
2023/04/14 12:20:41;;;;;;;;;;;16.70;59.40;;;;;;5088019;28;20027;-78
2023/04/14 12:23:07;;;;;;;;;;;16.80;57.60;;;;;;5094458;28;19988;-77
2023/04/14 12:25:33;;;;;;;;;;;16.80;58.60;;;;;;5078961;28;19951;-78
2023/04/14 12:28:05;;;;;;;;;;;16.90;60.00;;;;;;5075317;28;19924;-79
2023/04/14 12:30:31;;;;;;;;;;;16.90;59.30;;;;;;5088291;28;19928;-79
2023/04/14 12:32:56;;;;;;;;;;;16.80;60.20;;;;;;5043297;28;19946;-78
2023/04/14 12:35:22;;;;;;;;;;;16.60;60.40;;;;;;5093318;28;19925;-79
2023/04/14 12:37:48;;;;;;;;;;;16.30;62.50;;;;;;5072800;28;20383;-77
2023/04/14 12:40:15;;;;;;;;;;;16.10;62.80;;;;;;5074942;28;19946;-80
2023/04/14 12:42:44;;;;;;;;;;;16.10;62.60;;;;;;5074973;28;19984;-77
2023/04/14 12:45:10;;;;;;;;;;;16.10;61.00;;;;;;5087253;28;19925;-78
2023/04/14 12:47:36;;;;;;;;;;;16.20;57.00;;;;;;5086806;28;19931;-78
2023/04/14 12:50:21;;;;;;;;;;;16.10;59.10;;;;;;5075952;28;20050;-78
2023/04/14 12:52:46;;;;;;;;;;;16.10;59.10;;;;;;5077092;28;19936;-77
2023/04/14 12:55:19;;;;;;;;;;;16.20;64.60;;;;;;5071559;28;19928;-77
2023/04/14 12:57:45;;;;;;;;;;;16.50;60.00;;;;;;5089750;28;19940;-78
2023/04/14 13:00:11;;;;;;;;;;;16.50;59.10;;;;;;5092359;28;19928;-78
2023/04/14 13:02:37;;;;;;;;;;;16.60;59.60;;;;;;5093822;28;19925;-78
2023/04/14 13:05:03;;;;;;;;;;;16.60;58.90;;;;;;5092821;28;19928;-79
2023/04/14 13:07:29;;;;;;;;;;;16.50;62.00;;;;;;5094054;28;20042;-78
2023/04/14 13:09:55;;;;;;;;;;;16.70;64.20;;;;;;5077156;28;20403;-78
2023/04/14 13:12:21;;;;;;;;;;;16.70;61.20;;;;;;5059722;28;19947;-78
2023/04/14 13:14:46;;;;;;;;;;;16.60;59.30;;;;;;5093752;28;19924;-78
2023/04/14 13:17:12;;;;;;;;;;;16.50;59.70;;;;;;5076068;28;20402;-78
2023/04/14 13:19:38;;;;;;;;;;;16.50;57.30;;;;;;5076494;28;19991;-78
2023/04/14 13:22:03;;;;;;;;;;;16.60;58.60;;;;;;5060041;28;19924;-78
2023/04/14 13:24:29;;;;;;;;;;;16.60;57.50;;;;;;5078048;28;19924;-78
2023/04/14 13:26:54;;;;;;;;;;;16.60;58.70;;;;;;5059413;28;19974;-78
2023/04/14 13:29:20;;;;;;;;;;;16.50;59.80;;;;;;5092998;28;19935;-78
2023/04/14 13:31:46;;;;;;;;;;;16.50;57.60;;;;;;5061609;28;19925;-78
2023/04/14 13:34:11;;;;;;;;;;;16.60;59.40;;;;;;5075522;28;19956;-78
2023/04/14 13:36:37;;;;;;;;;;;16.80;57.30;;;;;;5059795;28;19924;-78
2023/04/14 13:39:03;;;;;;;;;;;17.00;55.90;;;;;;5075374;28;19935;-78
2023/04/14 13:41:29;;;;;;;;;;;17.10;59.40;;;;;;5075865;28;19951;-78
2023/04/14 13:43:54;;;;;;;;;;;17.20;56.50;;;;;;5075746;28;19967;-78
2023/04/14 13:46:20;;;;;;;;;;;17.40;53.90;;;;;;5076281;28;19928;-79
2023/04/14 13:48:46;;;;;;;;;;;17.40;56.80;;;;;;5087439;28;19928;-78
2023/04/14 13:51:12;;;;;;;;;;;17.30;54.70;;;;;;5054778;28;19929;-79
2023/04/14 13:53:37;;;;;;;;;;;17.10;53.50;;;;;;5096557;28;19924;-78
2023/04/14 13:56:03;;;;;;;;;;;17.10;56.40;;;;;;5095826;28;19936;-78
2023/04/14 13:58:29;;;;;;;;;;;17.10;56.10;;;;;;5051169;28;19950;-78
2023/04/14 14:00:55;;;;;;;;;;;17.10;54.70;;;;;;5078669;28;19929;-78
2023/04/14 14:03:21;;;;;;;;;;;17.20;56.30;;;;;;5079890;28;20307;-78
2023/04/14 14:05:47;;;;;;;;;;;17.40;53.40;;;;;;5082605;28;20505;-78
2023/04/14 14:08:13;;;;;;;;;;;17.50;58.20;;;;;;5062603;28;19928;-78
2023/04/14 14:10:39;;;;;;;;;;;17.50;57.60;;;;;;5096763;28;19925;-78
2023/04/14 14:13:05;;;;;;;;;;;17.40;56.40;;;;;;5082569;28;19979;-79
2023/04/14 14:15:31;;;;;;;;;;;17.40;55.40;;;;;;5080278;28;19936;-78
2023/04/14 14:17:56;;;;;;;;;;;17.30;53.50;;;;;;5078935;28;19929;-79
2023/04/14 14:20:22;;;;;;;;;;;17.40;58.70;;;;;;5079797;28;19924;-78
2023/04/14 14:22:47;;;;;;;;;;;17.30;57.60;;;;;;5079705;28;19930;-79